sensor_id;sensor_type;location;lat;lon;timestamp;noise_LAeq;noise_LA_min;noise_LA_max;noise_LA01;noise_LA95
84579;Laerm;74804;52.100;5.116;2024-03-08T00:00:23;42.07;39.00;52.71;;
84579;Laerm;74804;52.100;5.116;2024-03-08T00:02:57;40.87;38.95;44.33;;
84579;Laerm;74804;52.100;5.116;2024-03-08T00:05:28;41.05;38.47;52.88;;
84579;Laerm;74804;52.100;5.116;2024-03-08T00:08:00;41.97;39.43;47.11;;
84579;Laerm;74804;52.100;5.116;2024-03-08T00:10:31;42.27;38.96;49.57;;
84579;Laerm;74804;52.100;5.116;2024-03-08T00:13:02;41.24;38.60;52.77;;
84579;Laerm;74804;52.100;5.116;2024-03-08T00:15:34;41.60;39.01;47.17;;
84579;Laerm;74804;52.100;5.116;2024-03-08T00:18:08;41.79;38.55;59.01;;
84579;Laerm;74804;52.100;5.116;2024-03-08T00:20:39;40.30;38.29;43.07;;
84579;Laerm;74804;52.100;5.116;2024-03-08T00:23:11;40.25;37.91;43.37;;
84579;Laerm;74804;52.100;5.116;2024-03-08T00:25:43;40.42;38.30;44.07;;
84579;Laerm;74804;52.100;5.116;2024-03-08T00:28:14;40.08;37.81;45.15;;
84579;Laerm;74804;52.100;5.116;2024-03-08T00:30:46;39.91;37.38;43.77;;
84579;Laerm;74804;52.100;5.116;2024-03-08T00:33:20;42.96;37.17;56.00;;
84579;Laerm;74804;52.100;5.116;2024-03-08T00:35:51;40.08;37.05;48.01;;
84579;Laerm;74804;52.100;5.116;2024-03-08T00:38:22;40.54;37.25;47.95;;
84579;Laerm;74804;52.100;5.116;2024-03-08T00:40:53;39.85;37.12;47.68;;
84579;Laerm;74804;52.100;5.116;2024-03-08T00:43:24;39.06;36.67;43.11;;
84579;Laerm;74804;52.100;5.116;2024-03-08T00:45:56;44.96;36.62;62.04;;
84579;Laerm;74804;52.100;5.116;2024-03-08T00:48:31;40.72;37.07;48.00;;
84579;Laerm;74804;52.100;5.116;2024-03-08T00:51:02;41.59;36.85;65.19;;
84579;Laerm;74804;52.100;5.116;2024-03-08T00:53:33;40.43;37.30;46.44;;
84579;Laerm;74804;52.100;5.116;2024-03-08T00:56:05;39.33;36.42;45.97;;
84579;Laerm;74804;52.100;5.116;2024-03-08T00:58:37;39.93;36.35;44.41;;
84579;Laerm;74804;52.100;5.116;2024-03-08T01:01:08;39.88;37.14;46.43;;
84579;Laerm;74804;52.100;5.116;2024-03-08T01:03:42;39.96;36.85;43.22;;
84579;Laerm;74804;52.100;5.116;2024-03-08T01:06:13;40.20;36.65;48.02;;
84579;Laerm;74804;52.100;5.116;2024-03-08T01:08:45;38.85;36.51;43.19;;
84579;Laerm;74804;52.100;5.116;2024-03-08T01:11:16;39.97;36.92;44.77;;
84579;Laerm;74804;52.100;5.116;2024-03-08T01:13:47;39.10;36.88;43.31;;
84579;Laerm;74804;52.100;5.116;2024-03-08T01:16:18;38.90;36.09;43.36;;
84579;Laerm;74804;52.100;5.116;2024-03-08T01:18:52;39.23;36.07;55.74;;
84579;Laerm;74804;52.100;5.116;2024-03-08T01:21:23;39.53;36.15;51.12;;
84579;Laerm;74804;52.100;5.116;2024-03-08T01:23:54;39.05;36.54;44.33;;
84579;Laerm;74804;52.100;5.116;2024-03-08T01:26:25;39.08;36.26;42.29;;
84579;Laerm;74804;52.100;5.116;2024-03-08T01:28:56;40.88;38.05;45.47;;
84579;Laerm;74804;52.100;5.116;2024-03-08T01:31:28;38.96;36.30;45.56;;
84579;Laerm;74804;52.100;5.116;2024-03-08T01:34:02;39.97;36.65;44.12;;
84579;Laerm;74804;52.100;5.116;2024-03-08T01:36:33;39.52;35.82;46.23;;
84579;Laerm;74804;52.100;5.116;2024-03-08T01:39:04;39.59;36.74;45.32;;
84579;Laerm;74804;52.100;5.116;2024-03-08T01:41:37;40.68;37.69;50.58;;
84579;Laerm;74804;52.100;5.116;2024-03-08T01:44:08;42.01;35.82;65.67;;
84579;Laerm;74804;52.100;5.116;2024-03-08T01:46:39;40.77;38.02;44.50;;
84579;Laerm;74804;52.100;5.116;2024-03-08T01:49:14;40.13;36.76;49.06;;
84579;Laerm;74804;52.100;5.116;2024-03-08T01:51:48;39.79;36.98;47.95;;
84579;Laerm;74804;52.100;5.116;2024-03-08T01:54:19;39.49;35.87;43.80;;
84579;Laerm;74804;52.100;5.116;2024-03-08T01:56:51;40.74;38.18;44.32;;
84579;Laerm;74804;52.100;5.116;2024-03-08T01:59:22;40.12;37.16;45.20;;
84579;Laerm;74804;52.100;5.116;2024-03-08T02:01:54;40.34;36.73;46.69;;
84579;Laerm;74804;52.100;5.116;2024-03-08T02:04:28;39.46;36.27;43.12;;
84579;Laerm;74804;52.100;5.116;2024-03-08T02:07:01;38.87;35.86;43.23;;
84579;Laerm;74804;52.100;5.116;2024-03-08T02:09:32;40.70;37.22;44.01;;
84579;Laerm;74804;52.100;5.116;2024-03-08T02:12:04;38.72;35.13;42.69;;
84579;Laerm;74804;52.100;5.116;2024-03-08T02:14:35;39.47;37.04;43.49;;
84579;Laerm;74804;52.100;5.116;2024-03-08T02:17:07;41.18;37.60;45.72;;
84579;Laerm;74804;52.100;5.116;2024-03-08T02:19:42;40.81;37.72;44.45;;
84579;Laerm;74804;52.100;5.116;2024-03-08T02:22:15;40.93;37.79;46.97;;
84579;Laerm;74804;52.100;5.116;2024-03-08T02:24:47;39.38;35.45;44.31;;
84579;Laerm;74804;52.100;5.116;2024-03-08T02:27:23;40.01;37.57;44.18;;
84579;Laerm;74804;52.100;5.116;2024-03-08T02:29:55;40.41;37.17;47.42;;
84579;Laerm;74804;52.100;5.116;2024-03-08T02:32:27;39.02;36.32;43.75;;
84579;Laerm;74804;52.100;5.116;2024-03-08T02:35:00;40.83;37.13;50.15;;
84579;Laerm;74804;52.100;5.116;2024-03-08T02:37:35;39.03;36.06;43.66;;
84579;Laerm;74804;52.100;5.116;2024-03-08T02:40:07;39.56;36.65;43.45;;
84579;Laerm;74804;52.100;5.116;2024-03-08T02:42:40;39.10;36.83;43.24;;
84579;Laerm;74804;52.100;5.116;2024-03-08T02:45:11;39.91;37.22;44.59;;
84579;Laerm;74804;52.100;5.116;2024-03-08T02:47:42;39.72;37.21;45.02;;
84579;Laerm;74804;52.100;5.116;2024-03-08T02:50:13;40.08;37.70;47.02;;
84579;Laerm;74804;52.100;5.116;2024-03-08T02:52:47;40.15;37.20;44.54;;
84579;Laerm;74804;52.100;5.116;2024-03-08T02:55:18;40.77;37.77;45.81;;
84579;Laerm;74804;52.100;5.116;2024-03-08T02:57:49;40.27;37.28;43.48;;
84579;Laerm;74804;52.100;5.116;2024-03-08T03:00:22;41.68;38.35;46.71;;
84579;Laerm;74804;52.100;5.116;2024-03-08T03:02:53;40.11;37.38;43.91;;
84579;Laerm;74804;52.100;5.116;2024-03-08T03:05:24;40.51;36.96;44.09;;
84579;Laerm;74804;52.100;5.116;2024-03-08T03:07:59;40.25;36.95;49.91;;
84579;Laerm;74804;52.100;5.116;2024-03-08T03:10:31;40.23;36.83;51.08;;
84579;Laerm;74804;52.100;5.116;2024-03-08T03:13:02;40.02;36.65;45.36;;
84579;Laerm;74804;52.100;5.116;2024-03-08T03:15:35;39.58;36.78;43.59;;
84579;Laerm;74804;52.100;5.116;2024-03-08T03:18:09;39.46;36.10;44.17;;
84579;Laerm;74804;52.100;5.116;2024-03-08T03:20:40;40.56;37.91;45.41;;
84579;Laerm;74804;52.100;5.116;2024-03-08T03:23:14;40.70;38.24;47.01;;
84579;Laerm;74804;52.100;5.116;2024-03-08T03:25:48;40.21;37.62;43.43;;
84579;Laerm;74804;52.100;5.116;2024-03-08T03:28:19;41.40;38.17;53.83;;
84579;Laerm;74804;52.100;5.116;2024-03-08T03:30:51;41.09;37.59;46.75;;
84579;Laerm;74804;52.100;5.116;2024-03-08T03:33:26;41.20;37.48;44.85;;
84579;Laerm;74804;52.100;5.116;2024-03-08T03:35:58;43.26;39.30;49.19;;
84579;Laerm;74804;52.100;5.116;2024-03-08T03:38:31;43.16;39.72;57.17;;
84579;Laerm;74804;52.100;5.116;2024-03-08T03:41:03;42.33;39.74;52.21;;
84579;Laerm;74804;52.100;5.116;2024-03-08T03:43:37;41.51;39.18;45.30;;
84579;Laerm;74804;52.100;5.116;2024-03-08T03:46:08;41.90;39.78;46.19;;
84579;Laerm;74804;52.100;5.116;2024-03-08T03:48:40;41.57;39.07;45.00;;
84579;Laerm;74804;52.100;5.116;2024-03-08T03:51:11;44.00;41.33;48.20;;
84579;Laerm;74804;52.100;5.116;2024-03-08T03:53:45;43.06;39.30;48.08;;
84579;Laerm;74804;52.100;5.116;2024-03-08T03:56:16;41.88;39.39;44.65;;
84579;Laerm;74804;52.100;5.116;2024-03-08T03:58:48;42.73;40.16;46.29;;
84579;Laerm;74804;52.100;5.116;2024-03-08T04:01:19;42.97;39.78;49.71;;
84579;Laerm;74804;52.100;5.116;2024-03-08T04:03:51;42.62;40.17;45.52;;
84579;Laerm;74804;52.100;5.116;2024-03-08T04:06:22;42.90;40.77;45.13;;
84579;Laerm;74804;52.100;5.116;2024-03-08T04:08:56;42.54;40.48;44.52;;
84579;Laerm;74804;52.100;5.116;2024-03-08T04:11:27;43.50;41.46;46.30;;
84579;Laerm;74804;52.100;5.116;2024-03-08T04:13:58;44.57;41.98;49.73;;
84579;Laerm;74804;52.100;5.116;2024-03-08T04:16:29;44.67;41.51;50.26;;
84579;Laerm;74804;52.100;5.116;2024-03-08T04:19:01;43.88;41.86;45.85;;
84579;Laerm;74804;52.100;5.116;2024-03-08T04:21:32;44.91;42.70;47.77;;
84579;Laerm;74804;52.100;5.116;2024-03-08T04:24:06;44.91;42.52;47.28;;
84579;Laerm;74804;52.100;5.116;2024-03-08T04:26:38;44.78;42.25;47.27;;
84579;Laerm;74804;52.100;5.116;2024-03-08T04:29:09;45.29;43.06;48.08;;
84579;Laerm;74804;52.100;5.116;2024-03-08T04:31:42;44.85;42.81;47.15;;
84579;Laerm;74804;52.100;5.116;2024-03-08T04:34:13;46.01;43.77;49.64;;
84579;Laerm;74804;52.100;5.116;2024-03-08T04:36:44;45.77;42.63;55.06;;
84579;Laerm;74804;52.100;5.116;2024-03-08T04:39:18;45.25;42.76;48.44;;
84579;Laerm;74804;52.100;5.116;2024-03-08T04:41:49;45.46;43.43;48.18;;
84579;Laerm;74804;52.100;5.116;2024-03-08T04:44:22;45.50;43.53;47.83;;
84579;Laerm;74804;52.100;5.116;2024-03-08T04:46:54;45.99;44.04;49.10;;
84579;Laerm;74804;52.100;5.116;2024-03-08T04:49:25;46.15;43.99;53.83;;
84579;Laerm;74804;52.100;5.116;2024-03-08T04:51:56;45.88;43.93;50.09;;
84579;Laerm;74804;52.100;5.116;2024-03-08T04:54:30;45.67;43.70;48.03;;
84579;Laerm;74804;52.100;5.116;2024-03-08T04:57:01;46.32;44.07;48.67;;
84579;Laerm;74804;52.100;5.116;2024-03-08T04:59:32;46.63;44.59;49.92;;
84579;Laerm;74804;52.100;5.116;2024-03-08T05:02:04;46.54;44.34;54.45;;
84579;Laerm;74804;52.100;5.116;2024-03-08T05:04:35;46.00;43.96;48.32;;
84579;Laerm;74804;52.100;5.116;2024-03-08T05:07:06;46.36;43.97;50.66;;
84579;Laerm;74804;52.100;5.116;2024-03-08T05:09:40;46.63;44.07;55.44;;
84579;Laerm;74804;52.100;5.116;2024-03-08T05:12:18;46.91;44.74;50.63;;
84579;Laerm;74804;52.100;5.116;2024-03-08T05:14:50;46.68;44.87;57.05;;
84579;Laerm;74804;52.100;5.116;2024-03-08T05:17:21;47.78;45.19;58.13;;
84579;Laerm;74804;52.100;5.116;2024-03-08T05:19:52;49.93;45.67;58.27;;
84579;Laerm;74804;52.100;5.116;2024-03-08T05:22:23;51.16;46.30;61.70;;
84579;Laerm;74804;52.100;5.116;2024-03-08T05:24:58;49.60;46.59;60.78;;
84579;Laerm;74804;52.100;5.116;2024-03-08T05:27:29;48.47;46.21;53.29;;
84579;Laerm;74804;52.100;5.116;2024-03-08T05:30:00;48.85;46.62;56.89;;
84579;Laerm;74804;52.100;5.116;2024-03-08T05:32:32;49.11;46.10;57.37;;
84579;Laerm;74804;52.100;5.116;2024-03-08T05:35:03;48.58;46.16;53.94;;
84579;Laerm;74804;52.100;5.116;2024-03-08T05:37:34;48.09;46.03;51.09;;
84579;Laerm;74804;52.100;5.116;2024-03-08T05:40:09;48.75;46.74;59.21;;
84579;Laerm;74804;52.100;5.116;2024-03-08T05:42:40;48.26;46.14;51.48;;
84579;Laerm;74804;52.100;5.116;2024-03-08T05:45:12;48.72;46.25;54.91;;
84579;Laerm;74804;52.100;5.116;2024-03-08T05:47:43;49.79;46.47;63.65;;
84579;Laerm;74804;52.100;5.116;2024-03-08T05:50:15;48.29;46.08;51.86;;
84579;Laerm;74804;52.100;5.116;2024-03-08T05:52:47;48.58;46.69;57.39;;
84579;Laerm;74804;52.100;5.116;2024-03-08T05:55:20;47.88;46.02;52.16;;
84579;Laerm;74804;52.100;5.116;2024-03-08T05:57:52;48.03;45.98;61.15;;
84579;Laerm;74804;52.100;5.116;2024-03-08T06:00:24;47.50;45.62;52.93;;
84579;Laerm;74804;52.100;5.116;2024-03-08T06:02:55;47.71;45.86;51.49;;
84579;Laerm;74804;52.100;5.116;2024-03-08T06:05:26;47.66;45.57;51.95;;
84579;Laerm;74804;52.100;5.116;2024-03-08T06:07:57;48.82;45.15;56.54;;
84579;Laerm;74804;52.100;5.116;2024-03-08T06:10:31;47.61;45.16;53.12;;
84579;Laerm;74804;52.100;5.116;2024-03-08T06:13:03;48.96;46.22;59.44;;
84579;Laerm;74804;52.100;5.116;2024-03-08T06:15:34;47.46;45.56;52.76;;
84579;Laerm;74804;52.100;5.116;2024-03-08T06:18:06;48.17;45.53;54.56;;
84579;Laerm;74804;52.100;5.116;2024-03-08T06:20:39;47.89;45.24;52.95;;
84579;Laerm;74804;52.100;5.116;2024-03-08T06:23:11;49.60;46.57;59.52;;
84579;Laerm;74804;52.100;5.116;2024-03-08T06:25:47;49.45;46.88;59.05;;
84579;Laerm;74804;52.100;5.116;2024-03-08T06:28:18;49.14;46.49;54.67;;
84579;Laerm;74804;52.100;5.116;2024-03-08T06:30:50;48.98;46.80;55.02;;
84579;Laerm;74804;52.100;5.116;2024-03-08T06:33:21;48.52;46.13;55.09;;
84579;Laerm;74804;52.100;5.116;2024-03-08T06:35:54;49.87;46.24;68.52;;
84579;Laerm;74804;52.100;5.116;2024-03-08T06:38:25;48.62;46.40;52.92;;
84579;Laerm;74804;52.100;5.116;2024-03-08T06:41:00;49.04;46.95;52.30;;
84579;Laerm;74804;52.100;5.116;2024-03-08T06:43:31;48.53;46.52;53.68;;
84579;Laerm;74804;52.100;5.116;2024-03-08T06:46:03;49.30;46.78;66.90;;
84579;Laerm;74804;52.100;5.116;2024-03-08T06:48:34;49.51;47.23;60.44;;
84579;Laerm;74804;52.100;5.116;2024-03-08T06:51:05;48.78;46.69;53.86;;
84579;Laerm;74804;52.100;5.116;2024-03-08T06:53:38;49.12;46.94;57.24;;
84579;Laerm;74804;52.100;5.116;2024-03-08T06:56:12;49.34;47.45;59.21;;
84579;Laerm;74804;52.100;5.116;2024-03-08T06:58:43;49.39;47.22;56.16;;
84579;Laerm;74804;52.100;5.116;2024-03-08T07:01:14;49.20;47.18;61.30;;
84579;Laerm;74804;52.100;5.116;2024-03-08T07:03:45;48.42;46.54;52.77;;
84579;Laerm;74804;52.100;5.116;2024-03-08T07:06:16;48.76;46.48;54.02;;
84579;Laerm;74804;52.100;5.116;2024-03-08T07:08:47;49.04;46.55;54.13;;
84579;Laerm;74804;52.100;5.116;2024-03-08T07:11:21;49.20;46.95;54.77;;
84579;Laerm;74804;52.100;5.116;2024-03-08T07:13:52;48.96;46.67;58.61;;
84579;Laerm;74804;52.100;5.116;2024-03-08T07:16:25;49.67;46.81;65.08;;
84579;Laerm;74804;52.100;5.116;2024-03-08T07:18:56;49.13;47.08;54.74;;
84579;Laerm;74804;52.100;5.116;2024-03-08T07:21:27;49.27;47.29;54.44;;
84579;Laerm;74804;52.100;5.116;2024-03-08T07:23:58;49.19;47.28;52.10;;
84579;Laerm;74804;52.100;5.116;2024-03-08T07:26:54;52.28;47.65;66.73;;
84579;Laerm;74804;52.100;5.116;2024-03-08T07:29:27;53.09;49.50;63.22;;
84579;Laerm;74804;52.100;5.116;2024-03-08T07:31:58;53.20;49.40;66.12;;
84579;Laerm;74804;52.100;5.116;2024-03-08T07:34:42;50.27;47.16;56.09;;
84579;Laerm;74804;52.100;5.116;2024-03-08T07:37:13;51.29;47.07;68.06;;
84579;Laerm;74804;52.100;5.116;2024-03-08T07:39:44;48.79;46.68;64.25;;
84579;Laerm;74804;52.100;5.116;2024-03-08T07:42:18;48.79;46.99;62.04;;
84579;Laerm;74804;52.100;5.116;2024-03-08T07:44:50;49.23;46.73;62.35;;
84579;Laerm;74804;52.100;5.116;2024-03-08T07:47:22;49.20;46.81;60.41;;
84579;Laerm;74804;52.100;5.116;2024-03-08T07:49:53;51.08;47.05;60.37;;
84579;Laerm;74804;52.100;5.116;2024-03-08T07:52:25;48.62;46.92;54.10;;
84579;Laerm;74804;52.100;5.116;2024-03-08T07:54:56;49.89;46.28;58.08;;
84579;Laerm;74804;52.100;5.116;2024-03-08T07:57:30;57.33;50.58;75.16;;
84579;Laerm;74804;52.100;5.116;2024-03-08T08:00:02;50.47;46.87;60.57;;
84579;Laerm;74804;52.100;5.116;2024-03-08T08:02:35;49.57;46.36;65.49;;
84579;Laerm;74804;52.100;5.116;2024-03-08T08:05:06;48.85;46.14;59.78;;
84579;Laerm;74804;52.100;5.116;2024-03-08T08:07:38;47.73;45.79;60.87;;
84579;Laerm;74804;52.100;5.116;2024-03-08T08:10:11;48.30;45.28;58.44;;
84579;Laerm;74804;52.100;5.116;2024-03-08T08:12:48;48.04;45.22;59.50;;
84579;Laerm;74804;52.100;5.116;2024-03-08T08:15:20;47.42;45.15;55.47;;
84579;Laerm;74804;52.100;5.116;2024-03-08T08:17:51;47.08;44.29;61.38;;
84579;Laerm;74804;52.100;5.116;2024-03-08T08:20:22;46.15;44.33;54.81;;
84579;Laerm;74804;52.100;5.116;2024-03-08T08:22:55;46.73;43.79;54.76;;
84579;Laerm;74804;52.100;5.116;2024-03-08T08:25:26;47.68;45.02;59.83;;
84579;Laerm;74804;52.100;5.116;2024-03-08T08:28:00;47.28;45.14;56.03;;
84579;Laerm;74804;52.100;5.116;2024-03-08T08:30:31;45.88;44.00;55.30;;
84579;Laerm;74804;52.100;5.116;2024-03-08T08:33:03;47.11;44.01;58.32;;
84579;Laerm;74804;52.100;5.116;2024-03-08T08:35:36;47.15;44.46;60.07;;
84579;Laerm;74804;52.100;5.116;2024-03-08T08:38:07;48.38;44.27;61.21;;
84579;Laerm;74804;52.100;5.116;2024-03-08T08:40:39;46.99;44.38;61.20;;
84579;Laerm;74804;52.100;5.116;2024-03-08T08:43:13;46.65;44.09;60.38;;
84579;Laerm;74804;52.100;5.116;2024-03-08T08:45:44;45.99;43.83;51.18;;
84579;Laerm;74804;52.100;5.116;2024-03-08T08:48:17;48.22;44.24;60.43;;
84579;Laerm;74804;52.100;5.116;2024-03-08T08:50:48;47.94;44.41;55.54;;
84579;Laerm;74804;52.100;5.116;2024-03-08T08:53:20;46.03;43.53;52.07;;
84579;Laerm;74804;52.100;5.116;2024-03-08T08:55:51;48.42;43.87;60.77;;
84579;Laerm;74804;52.100;5.116;2024-03-08T08:58:26;46.23;43.79;58.01;;
84579;Laerm;74804;52.100;5.116;2024-03-08T09:00:57;47.13;43.89;56.94;;
84579;Laerm;74804;52.100;5.116;2024-03-08T09:03:29;45.90;43.52;50.44;;
84579;Laerm;74804;52.100;5.116;2024-03-08T09:06:02;46.15;43.53;59.14;;
84579;Laerm;74804;52.100;5.116;2024-03-08T09:08:37;45.53;43.46;56.99;;
84579;Laerm;74804;52.100;5.116;2024-03-08T09:11:08;45.82;42.65;55.42;;
84579;Laerm;74804;52.100;5.116;2024-03-08T09:13:43;45.06;42.66;57.06;;
84579;Laerm;74804;52.100;5.116;2024-03-08T09:16:16;45.26;42.77;60.49;;
84579;Laerm;74804;52.100;5.116;2024-03-08T09:18:47;46.21;42.42;62.90;;
84579;Laerm;74804;52.100;5.116;2024-03-08T09:21:19;44.31;42.70;50.20;;
84579;Laerm;74804;52.100;5.116;2024-03-08T09:23:50;44.86;42.63;52.43;;
84579;Laerm;74804;52.100;5.116;2024-03-08T09:26:21;44.58;42.43;50.78;;
84579;Laerm;74804;52.100;5.116;2024-03-08T09:28:55;45.05;41.71;59.09;;
84579;Laerm;74804;52.100;5.116;2024-03-08T09:31:26;46.15;42.59;55.94;;
84579;Laerm;74804;52.100;5.116;2024-03-08T09:33:57;45.99;42.50;52.98;;
84579;Laerm;74804;52.100;5.116;2024-03-08T09:36:29;45.64;42.32;54.42;;
84579;Laerm;74804;52.100;5.116;2024-03-08T09:39:00;45.02;42.16;53.94;;
84579;Laerm;74804;52.100;5.116;2024-03-08T09:41:35;45.21;41.73;57.87;;
84579;Laerm;74804;52.100;5.116;2024-03-08T09:44:09;45.96;41.50;60.89;;
84579;Laerm;74804;52.100;5.116;2024-03-08T09:46:41;44.18;41.30;64.32;;
84579;Laerm;74804;52.100;5.116;2024-03-08T09:49:13;45.20;41.16;61.49;;
84579;Laerm;74804;52.100;5.116;2024-03-08T09:51:45;45.68;40.69;57.87;;
84579;Laerm;74804;52.100;5.116;2024-03-08T09:54:17;44.24;40.77;56.78;;
84579;Laerm;74804;52.100;5.116;2024-03-08T09:56:49;43.71;40.05;59.23;;
84579;Laerm;74804;52.100;5.116;2024-03-08T09:59:24;46.65;40.53;61.26;;
84579;Laerm;74804;52.100;5.116;2024-03-08T10:02:15;44.04;40.01;60.32;;
84579;Laerm;74804;52.100;5.116;2024-03-08T10:04:46;44.84;40.12;62.68;;
84579;Laerm;74804;52.100;5.116;2024-03-08T10:07:17;42.97;40.41;51.47;;
84579;Laerm;74804;52.100;5.116;2024-03-08T10:09:51;42.41;39.56;53.32;;
84579;Laerm;74804;52.100;5.116;2024-03-08T10:12:22;44.36;39.68;63.12;;
84579;Laerm;74804;52.100;5.116;2024-03-08T10:14:57;45.40;38.88;62.59;;
84579;Laerm;74804;52.100;5.116;2024-03-08T10:17:29;45.97;40.94;59.81;;
84579;Laerm;74804;52.100;5.116;2024-03-08T10:20:00;43.11;39.78;55.12;;
84579;Laerm;74804;52.100;5.116;2024-03-08T10:22:32;46.42;39.71;68.09;;
84579;Laerm;74804;52.100;5.116;2024-03-08T10:25:05;42.63;39.80;51.60;;
84579;Laerm;74804;52.100;5.116;2024-03-08T10:27:38;44.75;40.51;59.69;;
84579;Laerm;74804;52.100;5.116;2024-03-08T10:30:13;44.89;40.31;59.40;;
84579;Laerm;74804;52.100;5.116;2024-03-08T10:32:47;43.70;40.07;55.67;;
84579;Laerm;74804;52.100;5.116;2024-03-08T10:35:19;42.35;39.29;59.92;;
84579;Laerm;74804;52.100;5.116;2024-03-08T10:37:50;46.29;40.75;61.80;;
84579;Laerm;74804;52.100;5.116;2024-03-08T10:40:26;54.19;48.44;64.09;;
84579;Laerm;74804;52.100;5.116;2024-03-08T10:42:58;48.44;40.73;59.38;;
84579;Laerm;74804;52.100;5.116;2024-03-08T10:45:35;44.29;41.17;53.91;;
84579;Laerm;74804;52.100;5.116;2024-03-08T10:48:12;45.58;40.76;65.55;;
84579;Laerm;74804;52.100;5.116;2024-03-08T10:50:50;44.15;40.25;55.66;;
84579;Laerm;74804;52.100;5.116;2024-03-08T10:53:22;45.17;40.66;58.65;;
84579;Laerm;74804;52.100;5.116;2024-03-08T10:55:53;47.76;40.70;66.08;;
84579;Laerm;74804;52.100;5.116;2024-03-08T10:58:27;44.38;40.36;55.18;;
84579;Laerm;74804;52.100;5.116;2024-03-08T11:01:02;44.05;39.56;56.62;;
84579;Laerm;74804;52.100;5.116;2024-03-08T11:03:46;49.53;40.38;58.56;;
84579;Laerm;74804;52.100;5.116;2024-03-08T11:06:22;51.95;41.71;58.73;;
84579;Laerm;74804;52.100;5.116;2024-03-08T11:08:53;52.64;42.95;59.65;;
84579;Laerm;74804;52.100;5.116;2024-03-08T11:11:26;51.77;46.63;58.92;;
84579;Laerm;74804;52.100;5.116;2024-03-08T11:13:58;51.88;41.23;65.12;;
84579;Laerm;74804;52.100;5.116;2024-03-08T11:16:43;54.86;41.94;69.06;;
84579;Laerm;74804;52.100;5.116;2024-03-08T11:19:25;53.73;41.86;63.35;;
84579;Laerm;74804;52.100;5.116;2024-03-08T11:22:02;54.42;41.83;62.09;;
84579;Laerm;74804;52.100;5.116;2024-03-08T11:24:38;51.72;42.69;61.07;;
84579;Laerm;74804;52.100;5.116;2024-03-08T11:27:10;50.53;41.08;60.11;;
84579;Laerm;74804;52.100;5.116;2024-03-08T11:29:42;49.73;41.48;57.97;;
84579;Laerm;74804;52.100;5.116;2024-03-08T11:32:17;51.17;41.02;66.76;;
84579;Laerm;74804;52.100;5.116;2024-03-08T11:34:49;52.93;41.05;64.44;;
84579;Laerm;74804;52.100;5.116;2024-03-08T11:37:21;48.87;40.65;60.54;;
84579;Laerm;74804;52.100;5.116;2024-03-08T11:39:53;46.95;41.06;57.20;;
84579;Laerm;74804;52.100;5.116;2024-03-08T11:42:26;47.77;41.23;73.29;;
84579;Laerm;74804;52.100;5.116;2024-03-08T11:44:58;46.49;41.16;67.91;;
84579;Laerm;74804;52.100;5.116;2024-03-08T11:47:34;45.52;41.09;57.67;;
84579;Laerm;74804;52.100;5.116;2024-03-08T11:50:07;47.04;42.03;61.28;;
84579;Laerm;74804;52.100;5.116;2024-03-08T11:52:41;48.55;40.88;60.33;;
84579;Laerm;74804;52.100;5.116;2024-03-08T11:55:13;44.79;40.29;55.60;;
84579;Laerm;74804;52.100;5.116;2024-03-08T11:57:46;44.60;40.42;56.14;;
84579;Laerm;74804;52.100;5.116;2024-03-08T12:00:18;45.07;40.83;56.66;;
84579;Laerm;74804;52.100;5.116;2024-03-08T12:03:05;46.74;41.31;58.12;;
84579;Laerm;74804;52.100;5.116;2024-03-08T12:05:37;44.56;40.93;55.60;;
84579;Laerm;74804;52.100;5.116;2024-03-08T12:08:10;45.92;40.31;59.19;;
84579;Laerm;74804;52.100;5.116;2024-03-08T12:10:42;46.49;42.44;60.03;;
84579;Laerm;74804;52.100;5.116;2024-03-08T12:13:13;46.92;40.09;61.51;;
84579;Laerm;74804;52.100;5.116;2024-03-08T12:15:45;47.26;40.97;68.23;;
84579;Laerm;74804;52.100;5.116;2024-03-08T12:18:19;46.31;40.92;61.24;;
84579;Laerm;74804;52.100;5.116;2024-03-08T12:20:50;46.49;42.40;56.17;;
84579;Laerm;74804;52.100;5.116;2024-03-08T12:23:22;45.73;42.60;58.43;;
84579;Laerm;74804;52.100;5.116;2024-03-08T12:25:53;45.11;41.41;59.99;;
84579;Laerm;74804;52.100;5.116;2024-03-08T12:28:25;46.24;41.78;62.93;;
84579;Laerm;74804;52.100;5.116;2024-03-08T12:30:57;46.36;41.80;58.04;;
84579;Laerm;74804;52.100;5.116;2024-03-08T12:33:31;46.45;41.70;58.64;;
84579;Laerm;74804;52.100;5.116;2024-03-08T12:36:02;47.47;41.42;64.59;;
84579;Laerm;74804;52.100;5.116;2024-03-08T12:38:35;47.63;41.73;64.66;;
84579;Laerm;74804;52.100;5.116;2024-03-08T12:41:06;50.00;41.83;66.16;;
84579;Laerm;74804;52.100;5.116;2024-03-08T12:43:40;50.83;40.86;71.38;;
84579;Laerm;74804;52.100;5.116;2024-03-08T12:46:16;47.97;40.63;71.22;;
84579;Laerm;74804;52.100;5.116;2024-03-08T12:48:50;47.39;41.31;67.66;;
84579;Laerm;74804;52.100;5.116;2024-03-08T12:51:21;46.37;41.71;54.33;;
84579;Laerm;74804;52.100;5.116;2024-03-08T12:53:52;45.26;41.19;53.71;;
84579;Laerm;74804;52.100;5.116;2024-03-08T12:56:28;45.68;40.07;57.16;;
84579;Laerm;74804;52.100;5.116;2024-03-08T12:59:01;45.80;42.28;52.43;;
84579;Laerm;74804;52.100;5.116;2024-03-08T13:01:32;46.11;41.41;58.57;;
84579;Laerm;74804;52.100;5.116;2024-03-08T13:04:07;45.33;40.97;54.80;;
84579;Laerm;74804;52.100;5.116;2024-03-08T13:06:38;46.66;42.71;60.61;;
84579;Laerm;74804;52.100;5.116;2024-03-08T13:09:10;46.28;42.34;55.30;;
84579;Laerm;74804;52.100;5.116;2024-03-08T13:11:41;46.70;42.48;57.54;;
84579;Laerm;74804;52.100;5.116;2024-03-08T13:14:12;47.85;40.45;57.72;;
84579;Laerm;74804;52.100;5.116;2024-03-08T13:16:44;47.06;41.76;70.45;;
84579;Laerm;74804;52.100;5.116;2024-03-08T13:19:18;45.08;40.72;59.96;;
84579;Laerm;74804;52.100;5.116;2024-03-08T13:21:50;45.37;41.11;53.26;;
84579;Laerm;74804;52.100;5.116;2024-03-08T13:24:21;44.46;41.59;53.05;;
84579;Laerm;74804;52.100;5.116;2024-03-08T13:26:52;44.42;40.08;51.06;;
84579;Laerm;74804;52.100;5.116;2024-03-08T13:29:23;44.08;40.54;52.93;;
84579;Laerm;74804;52.100;5.116;2024-03-08T13:31:54;45.38;40.42;61.01;;
84579;Laerm;74804;52.100;5.116;2024-03-08T13:34:32;45.38;40.32;64.14;;
84579;Laerm;74804;52.100;5.116;2024-03-08T13:37:03;45.34;41.27;52.70;;
84579;Laerm;74804;52.100;5.116;2024-03-08T13:39:34;44.99;41.58;57.64;;
84579;Laerm;74804;52.100;5.116;2024-03-08T13:42:08;48.47;42.17;60.72;;
84579;Laerm;74804;52.100;5.116;2024-03-08T13:44:43;48.85;40.22;68.22;;
84579;Laerm;74804;52.100;5.116;2024-03-08T13:47:14;45.78;40.27;60.32;;
84579;Laerm;74804;52.100;5.116;2024-03-08T13:49:48;48.09;41.31;62.30;;
84579;Laerm;74804;52.100;5.116;2024-03-08T13:52:19;50.18;41.41;63.35;;
84579;Laerm;74804;52.100;5.116;2024-03-08T13:54:52;46.93;43.21;54.66;;
84579;Laerm;74804;52.100;5.116;2024-03-08T13:57:23;49.98;42.29;73.83;;
84579;Laerm;74804;52.100;5.116;2024-03-08T13:59:54;46.70;41.38;57.59;;
84579;Laerm;74804;52.100;5.116;2024-03-08T14:02:26;46.72;41.65;57.61;;
84579;Laerm;74804;52.100;5.116;2024-03-08T14:05:01;51.97;40.56;76.23;;
84579;Laerm;74804;52.100;5.116;2024-03-08T14:07:32;45.65;41.80;52.94;;
84579;Laerm;74804;52.100;5.116;2024-03-08T14:10:04;45.89;42.23;55.35;;
84579;Laerm;74804;52.100;5.116;2024-03-08T14:12:37;46.13;41.51;58.26;;